Time;durP1;ratioP1;P1;durP2;ratioP2;P2;SDS_P1;SDS_P2;PMS_P1;PMS_P2;Temp;Humidity;BMP_temperature;BMP_pressure;BME280_temperature;BME280_humidity;BME280_pressure;Samples;Min_cycle;Max_cycle;Signal;HPM_P1;HPM_P2
2021/01/13 00:02:18;;;;;;;107.72;50.20;;;0.90;99.90;;;;;;5075939;28;20020;-76
2021/01/13 00:04:44;;;;;;;103.10;45.63;;;0.90;99.90;;;;;;5093460;28;20103;-75
2021/01/13 00:07:12;;;;;;;89.88;46.80;;;0.80;99.90;;;;;;5093214;28;20032;-72
2021/01/13 00:09:37;;;;;;;106.22;51.55;;;0.80;99.90;;;;;;5069964;28;20020;-73
2021/01/13 00:12:04;;;;;;;92.55;46.22;;;0.70;99.90;;;;;;5085059;28;20032;-72
2021/01/13 00:14:29;;;;;;;103.05;50.00;;;0.70;99.90;;;;;;5093442;28;20031;-74
2021/01/13 00:16:55;;;;;;;116.88;52.05;;;0.70;99.90;;;;;;5093496;28;20028;-73
2021/01/13 00:19:21;;;;;;;105.53;50.40;;;0.70;99.90;;;;;;5093108;28;20032;-73
2021/01/13 00:21:48;;;;;;;111.22;53.40;;;0.80;99.90;;;;;;5093455;28;20024;-73
2021/01/13 00:24:15;;;;;;;123.07;58.78;;;0.80;99.90;;;;;;5092883;28;20028;-71
2021/01/13 00:26:41;;;;;;;129.57;65.47;;;0.70;99.90;;;;;;5090230;28;20126;-75
2021/01/13 00:29:07;;;;;;;142.45;66.95;;;0.70;99.90;;;;;;5092508;28;20107;-74
2021/01/13 00:31:33;;;;;;;126.22;60.13;;;0.80;99.90;;;;;;5093068;28;20541;-73
2021/01/13 00:33:58;;;;;;;110.93;55.45;;;0.90;99.90;;;;;;5093359;28;20424;-72
2021/01/13 00:36:29;;;;;;;112.53;54.88;;;0.90;99.90;;;;;;5088573;28;20024;-73
2021/01/13 00:38:55;;;;;;;119.55;55.88;;;0.90;99.90;;;;;;5061462;28;20371;-74
2021/01/13 00:41:21;;;;;;;113.70;55.33;;;0.90;99.90;;;;;;5087986;28;20024;-74
2021/01/13 00:43:50;;;;;;;101.55;54.65;;;0.90;99.90;;;;;;5092782;28;20035;-75
2021/01/13 00:46:16;;;;;;;104.20;49.47;;;0.90;99.90;;;;;;5092768;28;20370;-73
2021/01/13 00:48:41;;;;;;;91.50;49.85;;;0.80;99.90;;;;;;5089168;28;20039;-73
2021/01/13 00:51:07;;;;;;;106.07;51.13;;;0.90;99.90;;;;;;5092452;28;20104;-74
2021/01/13 00:53:33;;;;;;;105.20;52.55;;;1.00;99.90;;;;;;5092487;28;20028;-76
2021/01/13 00:55:58;;;;;;;93.10;48.53;;;1.10;99.90;;;;;;5092541;28;20043;-74
2021/01/13 00:58:24;;;;;;;96.97;50.45;;;1.30;99.90;;;;;;5092525;28;20057;-74
2021/01/13 01:00:51;;;;;;;88.13;44.53;;;1.30;99.90;;;;;;5092450;28;20016;-73
2021/01/13 01:03:20;;;;;;;85.55;42.40;;;1.30;99.90;;;;;;5092919;28;20030;-72
2021/01/13 01:05:46;;;;;;;92.43;44.95;;;1.30;99.90;;;;;;5092224;28;20052;-74
2021/01/13 01:08:12;;;;;;;75.85;36.42;;;1.30;99.90;;;;;;5092546;28;20078;-72
2021/01/13 01:10:39;;;;;;;77.88;37.83;;;1.20;99.90;;;;;;5093463;28;20020;-76
2021/01/13 01:13:06;;;;;;;74.38;36.75;;;1.30;99.90;;;;;;5092466;28;20060;-75
2021/01/13 01:15:35;;;;;;;88.78;42.08;;;1.30;99.90;;;;;;5092400;28;20474;-74
2021/01/13 01:18:03;;;;;;;98.85;47.58;;;1.30;99.90;;;;;;5093377;28;20074;-74
2021/01/13 01:20:29;;;;;;;81.47;45.65;;;1.30;99.90;;;;;;5093258;28;20110;-74
2021/01/13 01:22:57;;;;;;;93.20;44.10;;;1.30;99.90;;;;;;5092362;28;20055;-75
2021/01/13 01:25:24;;;;;;;75.80;40.97;;;1.30;99.90;;;;;;5092807;28;20024;-74
2021/01/13 01:27:55;;;;;;;78.03;38.40;;;1.30;99.90;;;;;;5091482;28;20466;-74
2021/01/13 01:30:22;;;;;;;66.28;36.97;;;1.10;99.90;;;;;;5080462;28;20026;-78
2021/01/13 01:32:48;;;;;;;73.65;36.50;;;1.20;99.90;;;;;;5081371;28;20110;-74
2021/01/13 01:35:15;;;;;;;64.78;33.65;;;1.20;99.90;;;;;;5091042;28;20028;-74
2021/01/13 01:37:42;;;;;;;73.57;34.22;;;1.20;99.90;;;;;;5092374;28;20047;-77
2021/01/13 01:40:11;;;;;;;66.78;35.40;;;1.20;99.90;;;;;;5091991;28;20020;-74
2021/01/13 01:42:44;;;;;;;76.68;37.03;;;1.10;99.90;;;;;;5081976;28;20054;-74
2021/01/13 01:45:11;;;;;;;85.72;41.83;;;1.20;99.90;;;;;;5092035;28;20031;-73
2021/01/13 01:47:59;;;;;;;70.38;37.17;;;1.20;99.90;;;;;;5092177;28;20047;-74
2021/01/13 01:50:28;;;;;;;74.88;40.15;;;1.20;99.90;;;;;;5091853;28;20032;-74
2021/01/13 01:53:11;;;;;;;80.07;40.97;;;1.20;99.90;;;;;;5091636;28;20024;-74
2021/01/13 01:55:45;;;;;;;82.30;39.05;;;1.30;99.90;;;;;;5091907;28;20107;-74
2021/01/13 01:58:15;;;;;;;73.88;40.65;;;1.40;99.90;;;;;;5059824;28;20028;-74
2021/01/13 02:00:41;;;;;;;70.63;36.83;;;1.50;99.90;;;;;;5092201;28;20052;-75
2021/01/13 02:03:16;;;;;;;69.78;36.42;;;1.50;99.90;;;;;;5092116;28;20047;-72
2021/01/13 02:05:43;;;;;;;75.25;36.05;;;1.60;99.90;;;;;;5092105;28;20032;-72
2021/01/13 02:08:21;;;;;;;75.88;34.63;;;1.50;99.90;;;;;;5083920;28;20029;-74
2021/01/13 02:10:48;;;;;;;80.57;37.58;;;1.50;99.90;;;;;;5063918;28;20065;-75
2021/01/13 02:13:14;;;;;;;81.10;39.35;;;1.30;99.90;;;;;;5091663;28;20032;-74
2021/01/13 02:15:40;;;;;;;74.78;36.20;;;1.40;99.90;;;;;;5095150;28;20028;-73
2021/01/13 02:18:14;;;;;;;71.50;38.72;;;1.50;99.90;;;;;;5082714;28;20361;-73
2021/01/13 02:20:44;;;;;;;88.85;42.35;;;1.40;99.90;;;;;;5083248;28;20047;-74
2021/01/13 02:23:33;;;;;;;71.13;35.60;;;1.30;99.90;;;;;;5086484;28;20381;-73
2021/01/13 02:26:20;;;;;;;70.65;35.55;;;1.30;99.90;;;;;;5091033;28;20027;-72
2021/01/13 02:28:58;;;;;;;71.45;36.05;;;1.20;99.90;;;;;;5094586;28;20355;-70
2021/01/13 02:31:49;;;;;;;66.95;36.60;;;1.20;99.90;;;;;;5090633;28;20047;-71
2021/01/13 02:34:41;;;;;;;75.95;38.47;;;1.30;99.90;;;;;;5091616;28;20032;-73
2021/01/13 02:37:10;;;;;;;74.72;34.15;;;1.40;99.90;;;;;;5095679;28;20031;-73
2021/01/13 02:39:38;;;;;;;70.93;34.83;;;1.50;99.90;;;;;;5094662;28;20020;-74
2021/01/13 02:42:11;;;;;;;61.78;33.35;;;1.30;99.90;;;;;;5095292;28;20043;-74
2021/01/13 02:44:49;;;;;;;70.07;34.50;;;1.30;99.90;;;;;;5095216;28;20505;-73
2021/01/13 02:47:26;;;;;;;70.10;33.47;;;1.40;99.90;;;;;;5095739;28;20036;-73
2021/01/13 02:49:53;;;;;;;63.10;30.80;;;1.50;99.90;;;;;;5094996;28;20082;-73
2021/01/13 02:52:24;;;;;;;62.22;32.38;;;1.40;99.90;;;;;;5095069;28;20028;-73
2021/01/13 02:55:02;;;;;;;59.92;30.13;;;1.50;99.90;;;;;;5095418;28;20074;-74
2021/01/13 02:57:28;;;;;;;64.15;30.83;;;1.50;99.90;;;;;;5094403;28;20032;-73
2021/01/13 02:59:58;;;;;;;60.20;30.08;;;1.50;99.90;;;;;;5094199;28;20024;-74
2021/01/13 03:02:48;;;;;;;60.97;32.95;;;1.50;99.90;;;;;;5091889;28;20489;-70
2021/01/13 03:05:14;;;;;;;69.07;34.50;;;1.50;99.90;;;;;;5094234;28;20069;-72
2021/01/13 03:07:45;;;;;;;54.95;31.85;;;1.40;99.90;;;;;;5095922;28;20107;-72
2021/01/13 03:10:17;;;;;;;75.20;34.35;;;1.40;99.90;;;;;;5096404;28;20104;-73
2021/01/13 03:12:53;;;;;;;70.75;35.78;;;1.30;99.90;;;;;;5077501;28;20027;-74
2021/01/13 03:15:25;;;;;;;65.70;35.17;;;1.10;99.90;;;;;;5077903;28;20028;-72
2021/01/13 03:18:08;;;;;;;77.20;37.85;;;1.10;99.90;;;;;;5074139;28;20032;-73
2021/01/13 03:20:44;;;;;;;71.72;35.22;;;1.10;99.90;;;;;;5095291;28;20028;-72
2021/01/13 03:23:22;;;;;;;70.43;34.75;;;1.20;99.90;;;;;;5095524;28;20099;-72
2021/01/13 03:25:53;;;;;;;72.65;35.15;;;1.30;99.90;;;;;;5095494;28;20107;-72
2021/01/13 03:28:23;;;;;;;72.40;32.80;;;1.20;99.90;;;;;;5094829;28;20031;-72
2021/01/13 03:30:51;;;;;;;66.50;33.75;;;1.30;99.90;;;;;;5095109;28;20036;-73
2021/01/13 03:33:23;;;;;;;74.65;36.33;;;1.00;99.90;;;;;;5094781;28;20105;-72
2021/01/13 03:35:59;;;;;;;71.80;36.40;;;0.90;99.90;;;;;;5095252;28;20399;-72
2021/01/13 03:38:29;;;;;;;67.60;35.78;;;0.90;99.90;;;;;;5093273;28;20032;-72
2021/01/13 03:41:02;;;;;;;68.82;36.25;;;0.80;99.90;;;;;;5095135;28;20024;-73
2021/01/13 03:43:37;;;;;;;79.22;40.80;;;0.80;99.90;;;;;;5094452;28;20530;-71
2021/01/13 03:46:06;;;;;;;77.65;40.17;;;0.80;99.90;;;;;;5095252;28;20028;-73
2021/01/13 03:48:47;;;;;;;78.20;37.22;;;0.70;99.90;;;;;;5094611;28;20039;-73
2021/01/13 03:51:25;;;;;;;74.40;37.58;;;0.70;99.90;;;;;;5083174;28;20020;-72
2021/01/13 03:53:52;;;;;;;80.47;39.60;;;0.70;99.90;;;;;;5094712;28;20420;-73
2021/01/13 03:56:28;;;;;;;72.28;38.25;;;0.70;99.90;;;;;;5076585;28;20039;-73
2021/01/13 03:59:02;;;;;;;77.45;41.53;;;0.90;99.90;;;;;;5094944;28;20024;-73
2021/01/13 04:01:39;;;;;;;;;;;0.90;99.90;;;;;;5094929;28;20028;-71
2021/01/13 04:04:08;;;;;;;89.45;45.13;;;1.00;99.90;;;;;;5094695;28;19904;-72
2021/01/13 04:06:42;;;;;;;82.40;39.72;;;0.90;99.90;;;;;;5095004;28;20031;-72
2021/01/13 04:09:15;;;;;;;82.28;43.30;;;0.80;99.90;;;;;;5094311;28;20031;-72
2021/01/13 04:11:44;;;;;;;75.10;40.55;;;0.60;99.90;;;;;;5094596;28;20421;-72
2021/01/13 04:14:10;;;;;;;85.95;42.20;;;0.60;99.90;;;;;;5094392;28;20035;-71
2021/01/13 04:16:38;;;;;;;85.93;40.67;;;0.60;99.90;;;;;;5092898;28;20028;-72
2021/01/13 04:19:06;;;;;;;85.50;41.13;;;0.70;99.90;;;;;;5086944;28;20480;-71
2021/01/13 04:21:32;;;;;;;80.82;40.85;;;0.60;99.90;;;;;;5094451;28;20043;-72
2021/01/13 04:24:00;;;;;;;82.57;41.15;;;0.60;99.90;;;;;;5093925;28;20129;-72
2021/01/13 04:26:27;;;;;;;79.97;40.90;;;0.70;99.90;;;;;;5083393;28;20370;-72
2021/01/13 04:28:53;;;;;;;78.45;40.13;;;0.60;99.90;;;;;;5094379;28;20028;-73
2021/01/13 04:31:19;;;;;;;70.53;35.80;;;0.80;99.90;;;;;;5090103;28;20097;-73
2021/01/13 04:33:46;;;;;;;68.68;35.13;;;0.70;99.90;;;;;;5093911;28;20393;-73
2021/01/13 04:36:13;;;;;;;76.80;39.60;;;0.60;99.90;;;;;;5093498;28;20032;-72
2021/01/13 04:38:39;;;;;;;87.25;44.70;;;0.60;99.90;;;;;;5094143;28;20085;-73
2021/01/13 04:41:11;;;;;;;77.40;43.17;;;0.70;99.90;;;;;;5094372;28;20032;-73
2021/01/13 04:43:58;;;;;;;92.90;44.10;;;0.70;99.90;;;;;;5060950;28;20028;-71
2021/01/13 04:46:33;;;;;;;83.90;44.72;;;0.70;99.90;;;;;;5085280;28;20024;-71
2021/01/13 04:49:01;;;;;;;87.15;42.22;;;0.80;99.90;;;;;;5070159;28;20028;-72
2021/01/13 04:51:31;;;;;;;77.90;40.80;;;0.80;99.90;;;;;;5086474;28;20078;-73
2021/01/13 04:53:57;;;;;;;70.90;36.28;;;0.80;99.90;;;;;;5089990;28;20017;-73
2021/01/13 04:56:26;;;;;;;67.43;34.65;;;0.80;99.90;;;;;;5093752;28;20031;-73
2021/01/13 04:59:15;;;;;;;66.93;32.58;;;0.70;99.90;;;;;;5093253;28;20043;-74
2021/01/13 05:01:44;;;;;;;62.13;32.97;;;0.70;99.90;;;;;;5085127;28;20036;-71
2021/01/13 05:04:27;;;;;;;80.65;39.90;;;0.70;99.90;;;;;;5091352;28;20024;-69
2021/01/13 05:07:13;;;;;;;81.10;41.10;;;0.60;99.90;;;;;;5093594;28;20028;-70
2021/01/13 05:09:58;;;;;;;83.20;38.92;;;0.60;99.90;;;;;;5093700;28;20115;-71
2021/01/13 05:12:48;;;;;;;67.80;33.63;;;0.50;99.90;;;;;;5087785;28;20487;-70
2021/01/13 05:15:34;;;;;;;81.32;40.10;;;0.40;99.90;;;;;;5068748;28;20503;-71
2021/01/13 05:18:01;;;;;;;85.72;43.40;;;0.50;99.90;;;;;;5093209;28;20028;-72
2021/01/13 05:20:32;;;;;;;77.18;35.72;;;0.50;99.90;;;;;;5060842;28;20025;-71
2021/01/13 05:22:59;;;;;;;66.50;37.97;;;0.40;99.90;;;;;;5093226;28;20430;-68
2021/01/13 05:25:41;;;;;;;77.57;40.13;;;0.40;99.90;;;;;;5091195;28;20057;-72
2021/01/13 05:28:15;;;;;;;75.93;36.92;;;0.30;99.90;;;;;;5090452;28;20107;-70
2021/01/13 05:30:55;;;;;;;75.38;39.53;;;0.20;99.90;;;;;;5093129;28;20078;-70
2021/01/13 05:33:24;;;;;;;69.10;36.45;;;0.20;99.90;;;;;;5093000;28;20027;-70
2021/01/13 05:35:52;;;;;;;79.47;37.08;;;0.20;99.90;;;;;;5093023;28;20454;-71
2021/01/13 05:38:38;;;;;;;66.93;35.28;;;0.30;99.90;;;;;;5091455;28;20098;-71
2021/01/13 05:41:11;;;;;;;81.85;38.35;;;0.50;99.90;;;;;;5092785;28;20024;-70
2021/01/13 05:43:48;;;;;;;77.32;41.35;;;0.40;99.90;;;;;;5091480;28;20020;-71
2021/01/13 05:46:17;;;;;;;74.95;37.08;;;0.40;99.90;;;;;;5074677;28;20036;-70
2021/01/13 05:48:47;;;;;;;88.55;39.08;;;0.50;99.90;;;;;;5090963;28;20482;-71
2021/01/13 05:51:14;;;;;;;73.55;36.13;;;0.50;99.90;;;;;;5091395;28;20031;-70
2021/01/13 05:53:50;;;;;;;77.55;34.58;;;0.60;99.90;;;;;;5091585;28;20115;-72
2021/01/13 05:56:19;;;;;;;73.13;35.70;;;0.70;99.90;;;;;;5090539;28;20017;-72
2021/01/13 05:59:02;;;;;;;73.28;36.53;;;0.70;99.90;;;;;;5073699;28;20066;-71
2021/01/13 06:01:48;;;;;;;79.95;39.30;;;0.70;99.90;;;;;;5074585;28;20115;-72
2021/01/13 06:04:17;;;;;;;96.82;47.08;;;0.60;99.90;;;;;;5078587;28;20097;-72
2021/01/13 06:07:10;;;;;;;86.28;39.42;;;0.50;99.90;;;;;;5078467;28;20035;-72
2021/01/13 06:09:43;;;;;;;70.28;38.72;;;0.50;99.90;;;;;;5057877;28;20109;-73
2021/01/13 06:12:15;;;;;;;89.20;38.80;;;0.50;99.90;;;;;;5078784;28;20032;-71
2021/01/13 06:14:42;;;;;;;74.95;36.95;;;0.50;99.90;;;;;;5096665;28;20073;-72
2021/01/13 06:17:18;;;;;;;76.65;36.17;;;0.50;99.90;;;;;;5096294;28;20028;-72
2021/01/13 06:19:48;;;;;;;90.55;43.00;;;0.50;99.90;;;;;;5096665;28;20557;-72
2021/01/13 06:22:15;;;;;;;76.50;41.30;;;0.40;99.90;;;;;;5096675;28;20016;-71
2021/01/13 06:24:41;;;;;;;93.50;43.95;;;0.30;99.90;;;;;;5096729;28;20458;-72
2021/01/13 06:27:17;;;;;;;90.55;45.28;;;0.30;99.90;;;;;;5096425;28;20032;-72
2021/01/13 06:29:59;;;;;;;86.47;44.22;;;0.20;99.90;;;;;;5096033;28;20024;-70
2021/01/13 06:32:34;;;;;;;94.07;47.40;;;0.30;99.90;;;;;;5096874;28;20382;-71
2021/01/13 06:35:37;;;;;;;90.40;45.25;;;0.30;99.90;;;;;;5096343;28;20023;-71
2021/01/13 06:38:14;;;;;;;91.82;49.60;;;0.40;99.90;;;;;;5078082;28;20063;-72
2021/01/13 06:40:41;;;;;;;103.78;55.33;;;0.50;99.90;;;;;;5078268;28;20457;-71
2021/01/13 06:43:14;;;;;;;109.13;55.15;;;0.60;99.90;;;;;;5095766;28;20036;-72
2021/01/13 06:45:41;;;;;;;97.95;49.63;;;0.70;99.90;;;;;;5096091;28;20020;-72
2021/01/13 06:48:07;;;;;;;89.03;42.80;;;0.70;99.90;;;;;;5095769;28;20474;-73
2021/01/13 06:50:34;;;;;;;90.60;43.72;;;0.70;99.90;;;;;;5095873;28;20059;-72
2021/01/13 06:53:00;;;;;;;91.93;44.65;;;0.80;99.90;;;;;;5096349;28;20024;-73
2021/01/13 06:55:32;;;;;;;95.90;47.17;;;0.90;99.90;;;;;;5096301;28;20039;-72
2021/01/13 06:58:18;;;;;;;108.25;54.72;;;0.90;99.90;;;;;;5095158;28;20020;-71
2021/01/13 07:00:46;;;;;;;112.68;57.67;;;0.90;99.90;;;;;;5080414;28;20474;-73
2021/01/13 07:03:27;;;;;;;109.00;59.95;;;0.90;99.90;;;;;;5095454;28;20024;-71
2021/01/13 07:05:53;;;;;;;96.18;54.03;;;0.90;99.90;;;;;;5092573;28;20020;-72
2021/01/13 07:08:23;;;;;;;99.03;52.38;;;0.90;99.90;;;;;;5088283;28;20039;-73
2021/01/13 07:11:05;;;;;;;99.60;51.35;;;1.00;99.90;;;;;;5095269;28;20020;-72
2021/01/13 07:13:38;;;;;;;91.10;48.53;;;0.80;99.90;;;;;;5087993;28;20035;-73
2021/01/13 07:16:08;;;;;;;81.53;48.25;;;0.70;99.90;;;;;;5095299;28;20028;-77
2021/01/13 07:18:35;;;;;;;80.40;43.88;;;0.70;99.90;;;;;;5095415;28;20103;-71
2021/01/13 07:21:09;;;;;;;94.60;44.30;;;0.60;99.90;;;;;;5095412;28;20047;-73
2021/01/13 07:23:36;;;;;;;91.00;45.75;;;0.50;99.90;;;;;;5095475;28;20035;-71
2021/01/13 07:26:02;;;;;;;94.65;42.92;;;0.50;99.90;;;;;;5094955;28;20107;-74
2021/01/13 07:28:30;;;;;;;91.57;46.67;;;0.50;99.90;;;;;;5095635;28;20355;-71
2021/01/13 07:30:58;;;;;;;110.82;51.47;;;0.50;99.90;;;;;;5095422;28;20125;-71
2021/01/13 07:33:40;;;;;;;84.32;44.60;;;0.60;99.90;;;;;;5095143;28;20043;-71
2021/01/13 07:36:11;;;;;;;101.65;49.35;;;0.50;99.90;;;;;;5075153;28;20024;-71
2021/01/13 07:38:43;;;;;;;82.95;42.72;;;0.50;99.90;;;;;;5086983;28;20077;-70
2021/01/13 07:41:10;;;;;;;95.78;45.55;;;0.40;99.90;;;;;;5091663;28;20052;-72
2021/01/13 07:43:53;;;;;;;94.75;41.88;;;0.50;99.90;;;;;;5089391;28;20027;-71
2021/01/13 07:46:30;;;;;;;86.90;43.90;;;0.50;99.90;;;;;;5091667;28;20099;-73
2021/01/13 07:49:15;;;;;;;88.03;42.95;;;0.50;99.90;;;;;;5089046;28;20096;-71
2021/01/13 07:51:51;;;;;;;99.10;48.75;;;0.50;99.90;;;;;;5088835;28;20470;-71
2021/01/13 07:54:34;;;;;;;85.43;43.75;;;0.70;99.90;;;;;;5086901;28;20051;-72
2021/01/13 07:57:05;;;;;;;90.88;47.75;;;0.70;99.90;;;;;;5088037;28;20049;-73
2021/01/13 07:59:43;;;;;;;101.55;49.78;;;0.80;99.90;;;;;;5093582;28;20032;-73
2021/01/13 08:02:46;;;;;;;91.25;47.53;;;0.90;99.90;;;;;;5063794;28;20043;-72
2021/01/13 08:05:23;;;;;;;89.15;44.30;;;0.90;99.90;;;;;;5083726;28;20108;-72
2021/01/13 08:08:23;;;;;;;94.20;48.03;;;0.80;99.90;;;;;;5088821;28;20028;-71
2021/01/13 08:10:52;;;;;;;88.63;45.85;;;0.90;99.90;;;;;;5027683;28;20120;-71
2021/01/13 08:13:29;;;;;;;88.85;43.50;;;0.90;99.90;;;;;;5009282;28;20392;-73
2021/01/13 08:16:16;;;;;;;86.50;40.15;;;1.00;99.90;;;;;;5019252;28;20427;-72
2021/01/13 08:18:53;;;;;;;89.00;42.85;;;1.10;99.90;;;;;;5026258;28;20057;-71
2021/01/13 08:21:24;;;;;;;88.60;48.17;;;1.40;99.90;;;;;;5028297;28;20415;-72
2021/01/13 08:23:58;;;;;;;97.50;49.67;;;1.50;99.90;;;;;;5022186;28;20380;-72
2021/01/13 08:26:24;;;;;;;107.32;55.97;;;1.60;99.90;;;;;;5017073;28;20112;-71
2021/01/13 08:28:52;;;;;;;99.57;54.63;;;1.80;99.90;;;;;;5023521;28;20554;-73
2021/01/13 08:31:23;;;;;;;109.47;53.45;;;1.90;99.90;;;;;;5024848;28;20046;-74
2021/01/13 08:34:10;;;;;;;116.68;57.42;;;2.00;99.90;;;;;;5031051;28;20040;-74
2021/01/13 08:36:50;;;;;;;118.45;66.78;;;2.00;99.90;;;;;;5018545;28;20021;-72
2021/01/13 08:39:16;;;;;;;124.60;64.47;;;2.10;99.90;;;;;;5027136;28;20123;-73
2021/01/13 08:41:44;;;;;;;118.82;59.70;;;1.90;99.90;;;;;;5024673;28;20486;-72
2021/01/13 08:44:12;;;;;;;111.60;57.53;;;2.00;99.90;;;;;;5022843;28;20116;-71
2021/01/13 08:46:43;;;;;;;118.45;59.47;;;2.10;99.90;;;;;;5066281;28;20073;-72
2021/01/13 08:49:10;;;;;;;102.80;53.25;;;2.20;99.90;;;;;;5092409;28;20016;-72
2021/01/13 08:51:36;;;;;;;101.45;51.58;;;2.20;99.90;;;;;;5093444;28;20046;-73
2021/01/13 08:54:22;;;;;;;93.53;47.97;;;2.30;99.90;;;;;;5093725;28;20031;-72
2021/01/13 08:57:00;;;;;;;80.13;44.17;;;2.40;99.90;;;;;;5093516;28;20348;-73
2021/01/13 08:59:52;;;;;;;94.63;44.58;;;2.50;99.90;;;;;;5093168;28;20031;-73
2021/01/13 09:02:20;;;;;;;93.35;47.38;;;2.30;99.90;;;;;;5088607;28;20063;-73
2021/01/13 09:04:55;;;;;;;96.90;48.13;;;2.30;99.90;;;;;;5093338;28;20027;-72
2021/01/13 09:07:29;;;;;;;91.30;50.20;;;2.30;99.90;;;;;;5088073;28;20075;-71
2021/01/13 09:10:06;;;;;;;92.68;48.40;;;2.50;99.90;;;;;;5093342;28;20408;-74
2021/01/13 09:12:42;;;;;;;82.53;44.45;;;2.40;99.90;;;;;;5092884;28;20024;-70
2021/01/13 09:15:08;;;;;;;87.95;44.05;;;2.40;99.90;;;;;;5092924;28;20106;-72
2021/01/13 09:17:37;;;;;;;86.57;44.42;;;2.30;99.90;;;;;;5092791;28;20446;-73
2021/01/13 09:20:09;;;;;;;77.10;40.30;;;2.30;99.90;;;;;;5093225;28;20103;-73
2021/01/13 09:22:58;;;;;;;78.82;39.55;;;2.40;99.90;;;;;;5093091;28;20515;-72
2021/01/13 09:25:29;;;;;;;70.15;36.05;;;2.30;99.90;;;;;;5082009;28;20107;-73
2021/01/13 09:28:02;;;;;;;74.70;42.13;;;2.40;99.90;;;;;;5093066;28;20028;-72
2021/01/13 09:30:38;;;;;;;76.13;40.72;;;2.40;99.90;;;;;;5092821;28;20016;-72
2021/01/13 09:33:07;;;;;;;91.65;42.90;;;2.50;99.90;;;;;;5092597;28;20039;-72
2021/01/13 09:35:38;;;;;;;83.50;42.13;;;2.50;99.90;;;;;;5093579;28;20103;-72
2021/01/13 09:38:25;;;;;;;71.78;38.38;;;2.50;99.90;;;;;;5065379;28;20035;-74
2021/01/13 09:41:07;;;;;;;93.28;50.05;;;2.60;99.90;;;;;;5092918;28;20118;-72
2021/01/13 09:43:36;;;;;;;86.03;47.47;;;2.80;99.90;;;;;;5087876;28;20112;-74
2021/01/13 09:46:05;;;;;;;102.57;47.13;;;2.90;99.90;;;;;;5092284;28;20054;-72
2021/01/13 09:48:33;;;;;;;81.80;41.03;;;3.00;99.90;;;;;;5073719;28;20036;-72
2021/01/13 09:51:21;;;;;;;88.00;46.00;;;3.10;99.90;;;;;;5080369;28;20095;-73
2021/01/13 09:53:53;;;;;;;79.75;42.00;;;3.20;99.90;;;;;;5092583;28;20016;-73
2021/01/13 09:56:20;;;;;;;75.47;38.63;;;3.40;99.90;;;;;;5092599;28;20024;-72
2021/01/13 09:58:48;;;;;;;71.13;37.47;;;3.30;99.90;;;;;;5091936;28;20490;-72
2021/01/13 10:01:20;;;;;;;65.10;31.75;;;3.40;99.90;;;;;;5078951;28;20470;-72
2021/01/13 10:03:48;;;;;;;56.28;29.65;;;3.50;99.90;;;;;;5092570;28;20382;-74
2021/01/13 10:06:30;;;;;;;80.32;37.85;;;3.60;99.90;;;;;;5092501;28;20107;-71
2021/01/13 10:09:07;;;;;;;80.60;37.55;;;3.60;99.90;;;;;;5092562;28;20040;-75
2021/01/13 10:11:33;;;;;;;72.05;36.00;;;3.60;99.90;;;;;;5055661;28;20025;-72
2021/01/13 10:14:00;;;;;;;67.47;34.38;;;3.70;99.90;;;;;;5085975;28;20555;-74
2021/01/13 10:16:27;;;;;;;69.75;33.97;;;3.70;99.90;;;;;;5084446;28;20339;-75
2021/01/13 10:19:04;;;;;;;71.15;34.13;;;3.70;99.90;;;;;;5092230;28;20481;-71
2021/01/13 10:21:35;;;;;;;69.05;34.28;;;3.50;99.90;;;;;;5090636;28;20028;-72
2021/01/13 10:24:05;;;;;;;72.85;36.33;;;3.60;99.90;;;;;;5080616;28;20028;-77
2021/01/13 10:26:49;;;;;;;64.72;32.67;;;3.50;99.90;;;;;;5062727;28;20046;-74
2021/01/13 10:29:21;;;;;;;78.88;38.00;;;3.60;99.90;;;;;;5080430;28;20505;-71
2021/01/13 10:31:52;;;;;;;88.38;44.20;;;3.50;99.90;;;;;;5088235;28;20120;-75
2021/01/13 10:34:18;;;;;;;88.22;43.28;;;3.50;99.90;;;;;;5072106;28;20153;-73
2021/01/13 10:36:49;;;;;;;77.15;36.95;;;3.40;99.90;;;;;;5077229;28;20017;-74
2021/01/13 10:39:24;;;;;;;98.32;45.10;;;3.50;99.90;;;;;;5078981;28;20115;-72
2021/01/13 10:41:55;;;;;;;73.65;39.45;;;3.50;99.90;;;;;;5056871;28;20458;-72
2021/01/13 10:44:24;;;;;;;60.92;33.25;;;3.50;99.90;;;;;;5092219;28;20058;-71
2021/01/13 10:47:02;;;;;;;69.20;32.65;;;3.60;99.90;;;;;;5089189;28;20062;-73
2021/01/13 10:49:49;;;;;;;63.05;30.50;;;3.70;99.90;;;;;;5081979;28;20085;-74
2021/01/13 10:52:21;;;;;;;58.35;31.58;;;3.90;99.90;;;;;;5095560;28;20043;-73
2021/01/13 10:54:55;;;;;;;65.78;32.13;;;4.00;99.90;;;;;;5088086;28;20468;-74
2021/01/13 10:57:39;;;;;;;69.28;33.88;;;3.80;99.90;;;;;;5092379;28;20028;-73
2021/01/13 11:00:07;;;;;;;62.10;34.38;;;3.80;99.90;;;;;;5095669;28;20488;-74
2021/01/13 11:02:32;;;;;;;71.28;37.85;;;3.90;99.90;;;;;;5095164;28;20024;-72
2021/01/13 11:05:00;;;;;;;67.72;34.75;;;3.90;99.90;;;;;;5067022;28;20031;-72
2021/01/13 11:07:39;;;;;;;68.25;35.85;;;3.80;99.90;;;;;;5071492;28;20051;-72
2021/01/13 11:10:12;;;;;;;59.97;33.60;;;3.70;99.90;;;;;;5093961;28;20016;-71
2021/01/13 11:12:38;;;;;;;66.53;34.65;;;3.70;99.90;;;;;;5093570;28;20462;-75
2021/01/13 11:15:14;;;;;;;74.80;35.00;;;3.80;99.90;;;;;;5093163;28;20028;-72
2021/01/13 11:17:40;;;;;;;72.78;35.67;;;3.80;99.90;;;;;;5091360;28;20617;-70
2021/01/13 11:20:09;;;;;;;61.25;31.20;;;3.90;99.90;;;;;;5092465;28;20044;-73
2021/01/13 11:22:46;;;;;;;66.60;33.45;;;3.70;99.90;;;;;;5095046;28;20039;-72
2021/01/13 11:25:42;;;;;;;64.10;33.83;;;3.80;99.90;;;;;;5095397;28;20038;-76
2021/01/13 11:28:14;;;;;;;61.38;32.55;;;3.90;99.90;;;;;;5094927;28;20024;-74
2021/01/13 11:30:42;;;;;;;67.93;34.87;;;3.80;99.90;;;;;;5094460;28;20075;-74
2021/01/13 11:33:12;;;;;;;63.83;31.92;;;3.70;99.90;;;;;;5094948;28;20016;-76
2021/01/13 11:35:46;;;;;;;62.45;31.45;;;3.70;99.90;;;;;;5073333;28;20459;-75
2021/01/13 11:38:33;;;;;;;70.05;34.50;;;3.80;99.90;;;;;;5093409;28;20024;-76
2021/01/13 11:41:33;;;;;;;61.78;34.35;;;3.80;99.90;;;;;;5094245;28;20027;-75
2021/01/13 11:44:28;;;;;;;62.95;32.53;;;3.80;99.90;;;;;;5069530;28;20023;-74
2021/01/13 11:47:18;;;;;;;73.88;35.75;;;3.80;99.90;;;;;;5090534;28;20458;-73
2021/01/13 11:49:52;;;;;;;53.30;30.77;;;3.90;99.90;;;;;;5095352;28;20100;-74
2021/01/13 11:52:20;;;;;;;67.93;36.00;;;3.80;99.90;;;;;;5092946;28;20031;-78
2021/01/13 11:54:54;;;;;;;64.78;35.40;;;3.90;99.90;;;;;;5072597;28;20016;-73
2021/01/13 11:57:21;;;;;;;71.47;38.40;;;3.90;99.90;;;;;;5091766;28;20043;-76
2021/01/13 11:59:47;;;;;;;80.82;40.70;;;4.00;99.90;;;;;;5093561;28;20028;-75
2021/01/13 12:02:25;;;;;;;80.00;40.88;;;4.00;99.90;;;;;;5083127;28;20108;-74
2021/01/13 12:04:51;;;;;;;81.10;42.22;;;4.00;99.90;;;;;;5087042;28;20026;-74
2021/01/13 12:07:17;;;;;;;74.32;39.05;;;4.00;99.90;;;;;;5084406;28;20041;-75
2021/01/13 12:09:43;;;;;;;86.68;45.50;;;4.00;99.90;;;;;;5082006;28;20027;-74
2021/01/13 12:12:24;;;;;;;79.97;42.67;;;3.90;99.90;;;;;;5083049;28;20032;-76
2021/01/13 12:14:50;;;;;;;92.63;46.38;;;3.90;99.90;;;;;;5090451;28;20024;-74
2021/01/13 12:17:17;;;;;;;84.88;42.80;;;3.80;99.90;;;;;;5082934;28;20035;-75
2021/01/13 12:19:43;;;;;;;84.30;43.88;;;3.60;99.90;;;;;;5057269;28;20378;-73
2021/01/13 12:22:08;;;;;;;94.75;46.92;;;3.40;99.90;;;;;;5088174;28;20020;-74
2021/01/13 12:24:42;;;;;;;91.57;45.40;;;3.20;99.90;;;;;;5086064;28;20024;-73
2021/01/13 12:27:20;;;;;;;;;;;3.30;99.90;;;;;;5094070;28;20047;-80
2021/01/13 12:29:45;;;;;;;74.55;42.67;;;3.30;99.90;;;;;;5090755;28;19943;-74
2021/01/13 12:32:11;;;;;;;93.32;42.95;;;3.40;99.90;;;;;;5091580;28;20071;-74
2021/01/13 12:34:37;;;;;;;74.40;37.83;;;3.40;99.90;;;;;;5092904;28;20027;-75
2021/01/13 12:37:05;;;;;;;80.70;42.05;;;3.40;99.90;;;;;;5085844;28;20073;-75
2021/01/13 12:39:35;;;;;;;83.75;42.83;;;3.30;99.90;;;;;;5092296;28;20024;-76
2021/01/13 12:42:03;;;;;;;83.35;43.42;;;3.10;99.90;;;;;;5091485;28;20028;-74
2021/01/13 12:44:29;;;;;;;74.70;37.60;;;3.10;99.90;;;;;;5088404;28;20028;-74
2021/01/13 12:46:57;;;;;;;75.93;41.28;;;3.20;99.90;;;;;;5093137;28;20020;-74
2021/01/13 12:49:24;;;;;;;63.20;34.60;;;3.40;99.90;;;;;;5094012;28;20092;-74
2021/01/13 12:51:52;;;;;;;69.00;35.22;;;3.40;99.90;;;;;;5066787;28;20035;-73
2021/01/13 12:54:18;;;;;;;69.22;36.47;;;3.50;99.90;;;;;;5086863;28;20036;-74
2021/01/13 12:56:44;;;;;;;66.80;35.60;;;3.40;99.90;;;;;;5088134;28;20378;-75
2021/01/13 12:59:10;;;;;;;68.93;36.47;;;3.50;99.90;;;;;;5091128;28;20024;-75
2021/01/13 13:01:41;;;;;;;69.72;37.20;;;3.50;99.90;;;;;;5092707;28;20377;-74
2021/01/13 13:04:07;;;;;;;68.63;37.78;;;3.50;99.90;;;;;;5092914;28;20012;-73